Time;durP1;ratioP1;P1;durP2;ratioP2;P2;SDS_P1;SDS_P2;PMS_P1;PMS_P2;Temp;Humidity;BMP_temperature;BMP_pressure;BME280_temperature;BME280_humidity;BME280_pressure;Samples;Min_cycle;Max_cycle;Signal;HPM_P1;HPM_P2
2023/03/03 00:00:19;;;;;;;37.60;19.40;;;;;;;0.68;100.00;102231.69;5001463;28;20045;-72
2023/03/03 00:02:45;;;;;;;36.72;19.67;;;;;;;0.66;100.00;102230.84;5018698;28;20033;-72
2023/03/03 00:05:14;;;;;;;39.60;20.13;;;;;;;0.67;100.00;102234.34;5020305;28;20036;-73
2023/03/03 00:07:42;;;;;;;36.67;19.88;;;;;;;0.65;100.00;102237.00;5019797;28;20527;-72
2023/03/03 00:10:07;;;;;;;37.08;20.15;;;;;;;0.65;100.00;102236.13;5019207;28;20107;-73
2023/03/03 00:12:34;;;;;;;33.63;17.85;;;;;;;0.66;100.00;102230.84;5000823;28;20789;-73
2023/03/03 00:14:59;;;;;;;37.47;18.40;;;;;;;0.72;100.00;102234.28;5019195;28;20110;-72
2023/03/03 00:17:27;;;;;;;38.47;21.92;;;;;;;0.77;100.00;102232.50;4998989;28;20025;-73
2023/03/03 00:19:53;;;;;;;34.83;19.23;;;;;;;0.82;100.00;102228.00;5019118;28;20029;-73
2023/03/03 00:22:30;;;;;;;37.72;20.23;;;;;;;0.86;100.00;102232.38;5001485;28;20062;-71
2023/03/03 00:24:59;;;;;;;39.40;22.70;;;;;;;0.89;100.00;102232.34;5019778;28;20116;-72
2023/03/03 00:27:29;;;;;;;38.13;18.90;;;;;;;0.91;100.00;102238.53;5000224;28;20037;-73
2023/03/03 00:29:56;;;;;;;40.38;20.63;;;;;;;0.89;100.00;102240.28;5019335;28;20579;-72
2023/03/03 00:32:29;;;;;;;35.08;18.45;;;;;;;0.91;100.00;102235.88;5018860;28;20116;-72
2023/03/03 00:35:16;;;;;;;37.55;19.35;;;;;;;0.95;100.00;102242.91;5017151;28;20103;-73
2023/03/03 00:37:41;;;;;;;35.05;18.15;;;;;;;0.97;100.00;102241.09;5019110;28;20033;-72
2023/03/03 00:40:25;;;;;;;36.17;19.77;;;;;;;1.00;100.00;102242.84;5018529;28;20443;-73
2023/03/03 00:42:56;;;;;;;35.20;18.95;;;;;;;1.01;100.00;102237.53;5019162;28;20025;-72
2023/03/03 00:45:29;;;;;;;34.42;19.08;;;;;;;1.03;100.00;102235.72;5000524;28;20018;-72
2023/03/03 00:47:55;;;;;;;38.45;18.70;;;;;;;1.03;100.00;102238.38;5018566;28;20033;-73
2023/03/03 00:50:34;;;;;;;36.33;18.20;;;;;;;1.04;100.00;102245.44;5019337;28;20040;-73
2023/03/03 00:53:12;;;;;;;34.55;19.40;;;;;;;1.04;100.00;102245.44;5018672;28;20029;-72
2023/03/03 00:55:39;;;;;;;37.72;18.60;;;;;;;1.05;100.00;102241.00;5016873;28;20428;-72
2023/03/03 00:58:05;;;;;;;34.60;19.10;;;;;;;1.04;100.00;102247.22;5018285;28;20754;-74
2023/03/03 01:00:31;;;;;;;32.45;17.92;;;;;;;1.03;100.00;102242.81;5019078;28;20021;-72
2023/03/03 01:03:00;;;;;;;32.75;17.88;;;;;;;0.97;100.00;102240.25;5018417;28;20501;-73
2023/03/03 01:05:26;;;;;;;36.85;19.20;;;;;;;0.93;100.00;102247.31;5019050;28;20021;-73
2023/03/03 01:07:51;;;;;;;35.10;18.38;;;;;;;0.92;100.00;102234.97;5018118;28;20090;-73
2023/03/03 01:10:16;;;;;;;35.53;17.75;;;;;;;0.91;100.00;102248.22;5019259;28;20049;-72
2023/03/03 01:12:42;;;;;;;33.33;16.77;;;;;;;0.89;100.00;102253.53;5019495;28;20124;-73
2023/03/03 01:15:09;;;;;;;34.88;16.60;;;;;;;0.88;100.00;102257.09;5015890;28;20061;-72
2023/03/03 01:17:35;;;;;;;34.88;18.60;;;;;;;0.86;100.00;102246.53;5018275;28;20044;-72
2023/03/03 01:20:01;;;;;;;33.80;18.40;;;;;;;0.87;100.00;102245.59;5001569;28;20204;-73
2023/03/03 01:22:27;;;;;;;33.67;17.40;;;;;;;0.87;100.00;102252.69;5000108;28;20031;-73
2023/03/03 01:24:52;;;;;;;36.47;20.17;;;;;;;0.86;100.00;102257.09;5001279;28;20041;-73
2023/03/03 01:27:17;;;;;;;37.22;18.50;;;;;;;0.86;100.00;102261.50;5019399;28;20551;-72
2023/03/03 01:29:42;;;;;;;35.13;17.55;;;;;;;0.85;100.00;102260.63;5019064;28;20060;-73
2023/03/03 01:32:08;;;;;;;36.92;19.67;;;;;;;0.87;100.00;102263.28;5017101;28;20033;-73
2023/03/03 01:34:33;;;;;;;35.58;18.92;;;;;;;0.87;100.00;102255.31;5000769;28;20634;-73
2023/03/03 01:36:59;;;;;;;33.83;17.00;;;;;;;0.87;100.00;102258.84;4999418;28;20030;-73
2023/03/03 01:39:25;;;;;;;34.50;17.20;;;;;;;0.89;100.00;102256.19;5000375;28;20033;-72
2023/03/03 01:41:51;;;;;;;32.60;17.23;;;;;;;0.90;100.00;102259.72;4999314;28;20033;-72
2023/03/03 01:44:16;;;;;;;37.13;20.42;;;;;;;0.92;100.00;102261.44;5019388;28;20165;-73
2023/03/03 01:46:53;;;;;;;36.42;18.30;;;;;;;0.96;100.00;102268.47;5001210;28;20033;-72
2023/03/03 01:49:24;;;;;;;32.30;19.33;;;;;;;0.96;100.00;102270.25;5019257;28;20045;-73
2023/03/03 01:51:57;;;;;;;33.50;18.15;;;;;;;0.96;100.00;102271.09;5022745;28;20535;-72
2023/03/03 01:54:35;;;;;;;34.53;19.10;;;;;;;0.95;100.00;102265.81;5023782;28;20148;-72
2023/03/03 01:57:04;;;;;;;38.53;19.48;;;;;;;0.95;100.00;102265.81;5004861;28;20558;-72
2023/03/03 01:59:35;;;;;;;32.58;18.00;;;;;;;0.96;100.00;102263.16;5022279;28;20171;-73
2023/03/03 02:02:01;;;;;;;32.08;16.58;;;;;;;0.96;100.00;102257.88;5005269;28;20048;-71
2023/03/03 02:04:27;;;;;;;34.28;17.15;;;;;;;0.97;100.00;102257.00;5005581;28;20018;-72
2023/03/03 02:07:00;;;;;;;35.72;19.05;;;;;;;0.97;100.00;102251.69;5022114;28;20104;-71
2023/03/03 02:09:31;;;;;;;32.42;18.38;;;;;;;0.99;100.00;102256.97;5022790;28;20132;-72
2023/03/03 02:12:02;;;;;;;34.20;17.98;;;;;;;0.96;100.00;102246.41;5022533;28;20039;-71
2023/03/03 02:14:27;;;;;;;34.22;18.88;;;;;;;0.98;100.00;102248.16;5022571;28;20056;-72
2023/03/03 02:16:53;;;;;;;35.35;18.48;;;;;;;0.96;100.00;102265.81;5004230;28;20063;-71
2023/03/03 02:19:41;;;;;;;31.10;16.52;;;;;;;0.97;100.00;102264.06;5022329;28;20401;-71
2023/03/03 02:22:07;;;;;;;32.90;17.63;;;;;;;0.91;100.00;102264.09;4982771;28;20052;-71
2023/03/03 02:24:46;;;;;;;34.47;17.27;;;;;;;0.85;100.00;102262.41;5022575;28;20380;-72
2023/03/03 02:27:12;;;;;;;32.28;16.75;;;;;;;0.80;100.00;102262.44;5002751;28;20033;-74
2023/03/03 02:29:38;;;;;;;32.42;17.85;;;;;;;0.74;100.00;102275.75;5004000;28;20420;-71
2023/03/03 02:32:03;;;;;;;32.30;17.42;;;;;;;0.67;100.00;102266.09;5020774;28;20029;-71
2023/03/03 02:34:29;;;;;;;32.75;16.85;;;;;;;0.62;100.00;102267.94;5003895;28;20021;-73
2023/03/03 02:36:54;;;;;;;32.05;15.95;;;;;;;0.58;100.00;102272.34;5001895;28;20045;-72
2023/03/03 02:39:23;;;;;;;30.73;15.57;;;;;;;0.56;100.00;102265.31;5004159;28;20059;-71
2023/03/03 02:42:18;;;;;;;37.65;18.52;;;;;;;0.50;100.00;102266.25;5020193;28;20049;-73
2023/03/03 02:44:44;;;;;;;34.33;17.63;;;;;;;0.46;100.00;102265.41;5021962;28;20044;-73
2023/03/03 02:47:10;;;;;;;34.67;18.83;;;;;;;0.42;100.00;102258.38;5021923;28;20056;-71
2023/03/03 02:49:36;;;;;;;34.65;17.88;;;;;;;0.41;100.00;102274.25;5021578;28;20021;-72
2023/03/03 02:52:05;;;;;;;32.33;17.55;;;;;;;0.39;100.00;102268.13;5021518;28;20041;-72
2023/03/03 02:54:32;;;;;;;31.65;15.32;;;;;;;0.39;100.00;102270.75;5003154;28;20029;-71
2023/03/03 02:56:58;;;;;;;33.42;16.98;;;;;;;0.37;100.00;102268.13;5020604;28;20033;-74
2023/03/03 02:59:24;;;;;;;36.78;18.33;;;;;;;0.36;100.00;102268.13;5021126;28;20494;-72
2023/03/03 03:01:49;;;;;;;38.20;18.80;;;;;;;0.36;100.00;102265.50;5020906;28;20646;-71
2023/03/03 03:04:18;;;;;;;33.78;16.48;;;;;;;0.38;100.00;102264.59;5022054;28;20033;-72
2023/03/03 03:06:43;;;;;;;33.58;17.17;;;;;;;0.40;100.00;102269.88;5019440;28;20033;-73
2023/03/03 03:09:09;;;;;;;34.60;17.90;;;;;;;0.40;100.00;102273.38;5020492;28;20056;-71
2023/03/03 03:11:35;;;;;;;34.15;15.63;;;;;;;0.42;100.00;102268.09;5002278;28;20021;-72
2023/03/03 03:14:05;;;;;;;36.58;18.23;;;;;;;0.42;100.00;102274.25;5002042;28;20094;-72
2023/03/03 03:16:30;;;;;;;;;;;;;;;0.48;100.00;102270.66;5021149;28;20032;-71
2023/03/03 03:18:56;;;;;;;37.05;16.42;;;;;;;0.45;100.00;102270.69;5002808;28;19917;-71
2023/03/03 03:21:21;;;;;;;35.65;16.85;;;;;;;0.47;100.00;102279.50;5003007;28;20690;-72
2023/03/03 03:23:47;;;;;;;34.17;16.70;;;;;;;0.49;100.00;102286.53;5021523;28;20041;-71
2023/03/03 03:26:12;;;;;;;35.90;18.33;;;;;;;0.51;100.00;102281.22;4999026;28;20663;-73
2023/03/03 03:28:38;;;;;;;31.55;15.27;;;;;;;0.49;100.00;102273.31;5002777;28;20033;-72
2023/03/03 03:31:04;;;;;;;38.13;15.93;;;;;;;0.47;100.00;102274.19;5018763;28;20029;-71
2023/03/03 03:33:30;;;;;;;36.67;16.88;;;;;;;0.46;100.00;102280.41;5021254;28;20033;-71
2023/03/03 03:35:57;;;;;;;32.78;16.00;;;;;;;0.44;100.00;102272.47;5020043;28;20029;-71
2023/03/03 03:38:23;;;;;;;31.67;15.82;;;;;;;0.43;100.00;102280.44;5019034;28;20035;-73
2023/03/03 03:40:49;;;;;;;34.80;19.27;;;;;;;0.46;100.00;102275.09;5018831;28;20056;-72
2023/03/03 03:43:14;;;;;;;34.55;18.65;;;;;;;0.47;100.00;102279.50;5003212;28;20481;-73
2023/03/03 03:45:43;;;;;;;32.47;15.48;;;;;;;0.49;100.00;102283.03;5019064;28;20557;-72
2023/03/03 03:48:08;;;;;;;31.60;16.83;;;;;;;0.49;100.00;102283.03;5020338;28;21151;-72
2023/03/03 03:50:34;;;;;;;33.03;17.00;;;;;;;0.52;100.00;102288.28;5001547;28;20079;-72
2023/03/03 03:52:59;;;;;;;29.67;14.48;;;;;;;0.49;100.00;102288.31;5020288;28;20056;-73
2023/03/03 03:55:24;;;;;;;31.52;16.55;;;;;;;0.46;100.00;102290.97;5017226;28;20099;-72
2023/03/03 03:57:50;;;;;;;33.58;16.02;;;;;;;0.41;100.00;102291.03;5020007;28;20448;-72
2023/03/03 04:00:15;;;;;;;31.42;16.38;;;;;;;0.41;100.00;102284.84;5020386;28;20032;-73
2023/03/03 04:02:40;;;;;;;32.30;16.35;;;;;;;0.42;100.00;102295.41;5019172;28;20041;-73
2023/03/03 04:05:06;;;;;;;33.97;16.55;;;;;;;0.38;100.00;102298.09;5016549;28;20503;-72
2023/03/03 04:07:32;;;;;;;32.15;16.98;;;;;;;0.32;100.00;102305.19;5020017;28;20053;-72
2023/03/03 04:09:58;;;;;;;31.83;15.15;;;;;;;0.26;100.00;102302.56;5019477;28;20077;-74
2023/03/03 04:12:23;;;;;;;33.83;16.98;;;;;;;0.21;100.00;102298.22;5019293;28;20666;-74
2023/03/03 04:14:49;;;;;;;29.13;14.52;;;;;;;0.17;100.00;102306.16;5000959;28;20043;-72
2023/03/03 04:17:18;;;;;;;32.10;15.77;;;;;;;0.16;100.00;102300.88;5020573;28;20110;-73
2023/03/03 04:19:44;;;;;;;29.48;14.57;;;;;;;0.16;100.00;102292.94;5002972;28;20507;-73
2023/03/03 04:22:11;;;;;;;34.42;15.30;;;;;;;0.17;100.00;102306.16;5019037;28;20040;-72
2023/03/03 04:24:37;;;;;;;31.85;14.55;;;;;;;0.22;100.00;102305.25;5019082;28;20032;-73
2023/03/03 04:27:02;;;;;;;31.23;13.27;;;;;;;0.23;100.00;102307.00;5018510;28;20424;-72
2023/03/03 04:29:27;;;;;;;28.77;14.30;;;;;;;0.25;100.00;102308.75;5019853;28;20559;-72
2023/03/03 04:31:53;;;;;;;31.67;13.90;;;;;;;0.22;100.00;102311.44;5001923;28;20075;-72
2023/03/03 04:34:18;;;;;;;31.05;14.98;;;;;;;0.23;100.00;102310.53;5019516;28;20025;-73
2023/03/03 04:36:43;;;;;;;36.03;15.43;;;;;;;0.24;100.00;102304.34;5018683;28;20041;-72
2023/03/03 04:39:08;;;;;;;31.33;14.63;;;;;;;0.26;100.00;102313.13;5018809;28;20033;-72
2023/03/03 04:41:34;;;;;;;32.78;14.75;;;;;;;0.31;100.00;102305.19;5000869;28;20056;-72
2023/03/03 04:43:59;;;;;;;29.52;15.10;;;;;;;0.33;100.00;102309.56;5001166;28;20048;-72
2023/03/03 04:46:24;;;;;;;32.33;14.18;;;;;;;0.38;100.00;102306.91;5001577;28;20060;-72
2023/03/03 04:48:50;;;;;;;30.70;15.52;;;;;;;0.39;100.00;102306.00;5019857;28;20416;-72
2023/03/03 04:51:15;;;;;;;30.30;14.85;;;;;;;0.38;100.00;102309.56;5002579;28;20029;-72
2023/03/03 04:53:41;;;;;;;30.85;15.35;;;;;;;0.39;100.00;102306.00;5019263;28;20029;-73
2023/03/03 04:56:06;;;;;;;28.10;13.20;;;;;;;0.37;100.00;102301.59;5018588;28;20037;-72
2023/03/03 04:58:31;;;;;;;27.70;12.73;;;;;;;0.36;100.00;102310.44;5019753;28;20060;-72
2023/03/03 05:00:57;;;;;;;30.13;14.15;;;;;;;0.36;100.00;102313.09;5020410;28;20037;-72
2023/03/03 05:03:23;;;;;;;30.15;12.85;;;;;;;0.39;100.00;102303.38;5018543;28;20095;-73
2023/03/03 05:05:48;;;;;;;29.63;13.35;;;;;;;0.43;100.00;102314.81;5019151;28;20037;-72
2023/03/03 05:08:13;;;;;;;30.80;14.00;;;;;;;0.46;100.00;102314.78;5001743;28;20932;-72
2023/03/03 05:10:39;;;;;;;32.55;13.75;;;;;;;0.50;100.00;102305.94;5001557;28;20037;-72
2023/03/03 05:13:05;;;;;;;32.17;14.00;;;;;;;0.54;100.00;102317.38;5019249;28;20056;-72
2023/03/03 05:15:31;;;;;;;29.92;13.48;;;;;;;0.57;100.00;102312.03;5000460;28;20091;-73
2023/03/03 05:17:56;;;;;;;30.35;13.57;;;;;;;0.58;100.00;102304.09;5020977;28;20520;-72
2023/03/03 05:20:24;;;;;;;34.60;15.98;;;;;;;0.61;100.00;102311.13;5019642;28;20037;-73
2023/03/03 05:22:49;;;;;;;31.35;14.20;;;;;;;0.60;100.00;102312.00;5000373;28;20041;-72
2023/03/03 05:25:14;;;;;;;29.48;15.25;;;;;;;0.60;100.00;102310.28;5015161;28;20038;-73
2023/03/03 05:27:40;;;;;;;30.75;15.02;;;;;;;0.60;100.00;102320.84;4999624;28;20717;-73
2023/03/03 05:30:06;;;;;;;29.65;13.98;;;;;;;0.59;100.00;102316.44;4997355;28;20037;-73
2023/03/03 05:32:32;;;;;;;30.20;14.23;;;;;;;0.60;100.00;102318.22;5018805;28;20029;-72
2023/03/03 05:34:57;;;;;;;30.58;15.20;;;;;;;0.62;100.00;102311.13;5019586;28;20115;-72
2023/03/03 05:37:23;;;;;;;32.90;16.35;;;;;;;0.64;100.00;102316.41;5017947;28;20425;-72
2023/03/03 05:39:49;;;;;;;31.70;15.10;;;;;;;0.67;100.00;102317.28;4999264;28;20037;-73
2023/03/03 05:42:15;;;;;;;33.97;15.80;;;;;;;0.66;100.00;102312.84;5020121;28;20052;-72
2023/03/03 05:44:40;;;;;;;32.50;15.93;;;;;;;0.66;100.00;102315.50;5018686;28;20072;-73
2023/03/03 05:47:06;;;;;;;31.63;14.68;;;;;;;0.67;100.00;102322.56;5001740;28;20113;-73
2023/03/03 05:49:31;;;;;;;29.02;14.05;;;;;;;0.68;100.00;102326.94;5018475;28;20037;-73
2023/03/03 05:51:58;;;;;;;31.73;14.25;;;;;;;0.68;100.00;102321.66;5002046;28;20041;-72
2023/03/03 05:54:23;;;;;;;31.02;13.93;;;;;;;0.67;100.00;102324.31;5018574;28;20044;-73
2023/03/03 05:56:48;;;;;;;30.90;15.00;;;;;;;0.71;100.00;102325.19;5020215;28;20041;-73
2023/03/03 05:59:14;;;;;;;30.65;14.07;;;;;;;0.72;100.00;102327.81;5020205;28;20496;-72
2023/03/03 06:01:39;;;;;;;30.80;14.93;;;;;;;0.76;100.00;102328.66;5019822;28;20088;-72
2023/03/03 06:04:04;;;;;;;32.55;14.60;;;;;;;0.76;100.00;102323.34;5001853;28;20033;-73
2023/03/03 06:06:30;;;;;;;35.35;13.98;;;;;;;0.77;100.00;102326.00;5002137;28;20029;-73
2023/03/03 06:08:55;;;;;;;31.20;13.82;;;;;;;0.78;100.00;102332.19;5001940;28;20149;-73
2023/03/03 06:11:20;;;;;;;30.63;14.77;;;;;;;0.81;100.00;102329.50;5018993;28;20152;-72
2023/03/03 06:13:45;;;;;;;34.83;15.85;;;;;;;0.82;100.00;102325.94;5018869;28;20560;-72
2023/03/03 06:16:11;;;;;;;35.15;14.30;;;;;;;0.83;100.00;102330.34;5017931;28;20043;-73
2023/03/03 06:18:36;;;;;;;33.47;15.25;;;;;;;0.85;100.00;102325.94;5000207;28;20147;-72
2023/03/03 06:21:02;;;;;;;31.45;14.18;;;;;;;0.85;100.00;102333.88;5017797;28;20033;-73
2023/03/03 06:23:27;;;;;;;32.88;13.60;;;;;;;0.87;100.00;102342.66;5017108;28;20517;-73
2023/03/03 06:25:52;;;;;;;28.92;13.10;;;;;;;0.87;100.00;102337.38;4999586;28;20029;-73
2023/03/03 06:28:18;;;;;;;34.90;15.57;;;;;;;0.88;100.00;102349.72;5018424;28;20064;-72
2023/03/03 06:30:43;;;;;;;28.90;13.50;;;;;;;0.90;100.00;102353.22;5017149;28;20148;-72
2023/03/03 06:33:09;;;;;;;30.00;13.63;;;;;;;0.92;100.00;102353.22;5017264;28;20092;-72
2023/03/03 06:35:34;;;;;;;30.55;13.80;;;;;;;0.92;100.00;102356.72;5017812;28;20049;-73
2023/03/03 06:37:59;;;;;;;31.15;14.52;;;;;;;0.93;100.00;102358.50;5003540;28;20544;-73
2023/03/03 06:40:25;;;;;;;32.13;15.40;;;;;;;0.96;100.00;102357.59;5022611;28;21409;-73
2023/03/03 06:42:50;;;;;;;32.47;15.13;;;;;;;0.98;100.00;102367.28;5002116;28;20029;-72
2023/03/03 06:45:15;;;;;;;33.42;15.77;;;;;;;1.01;100.00;102377.84;5002586;28;20687;-73
2023/03/03 06:47:41;;;;;;;33.97;15.13;;;;;;;1.04;100.00;102377.81;5004108;28;20131;-72
2023/03/03 06:50:08;;;;;;;34.97;17.40;;;;;;;1.03;100.00;102376.06;5023280;28;20064;-72
2023/03/03 06:52:34;;;;;;;33.80;14.60;;;;;;;1.06;100.00;102371.66;5002068;28;20025;-73
2023/03/03 06:55:08;;;;;;;33.03;15.73;;;;;;;1.08;100.00;102375.13;5021665;28;20040;-73
2023/03/03 06:57:33;;;;;;;31.67;15.13;;;;;;;1.09;100.00;102380.41;5003549;28;20069;-73
2023/03/03 07:00:14;;;;;;;32.70;15.73;;;;;;;1.12;100.00;102390.13;5002536;28;20144;-72
2023/03/03 07:02:39;;;;;;;32.10;15.43;;;;;;;1.12;100.00;102387.47;5019944;28;20041;-73
2023/03/03 07:05:11;;;;;;;33.28;16.05;;;;;;;1.13;99.88;102387.44;5020715;28;20499;-72
2023/03/03 07:07:37;;;;;;;31.85;16.55;;;;;;;1.17;99.86;102393.59;5019023;28;20621;-72
2023/03/03 07:10:15;;;;;;;36.50;17.17;;;;;;;1.19;99.37;102392.69;5021084;28;20055;-72
2023/03/03 07:12:40;;;;;;;35.28;16.38;;;;;;;1.21;100.00;102395.31;5003188;28;20040;-73
2023/03/03 07:15:19;;;;;;;32.30;15.75;;;;;;;1.24;100.00;102397.06;5019161;28;20033;-72
2023/03/03 07:17:48;;;;;;;36.50;18.35;;;;;;;1.22;100.00;102387.34;5003091;28;20424;-72
2023/03/03 07:20:31;;;;;;;35.75;16.88;;;;;;;1.25;100.00;102394.41;5021269;28;20504;-72
2023/03/03 07:22:57;;;;;;;34.33;15.32;;;;;;;1.24;100.00;102397.94;5020691;28;20136;-72
2023/03/03 07:25:28;;;;;;;34.40;17.77;;;;;;;1.25;100.00;102399.69;5002942;28;20045;-73
2023/03/03 07:27:58;;;;;;;35.83;17.10;;;;;;;1.29;100.00;102396.13;5020960;28;20123;-72
2023/03/03 07:30:28;;;;;;;35.60;17.35;;;;;;;1.31;100.00;102402.28;5018611;28;20068;-74
2023/03/03 07:32:57;;;;;;;32.25;16.13;;;;;;;1.32;100.00;102401.41;5020584;28;20029;-75
2023/03/03 07:35:34;;;;;;;34.88;16.35;;;;;;;1.34;100.00;102404.03;5020521;28;20026;-74
2023/03/03 07:37:59;;;;;;;33.90;16.48;;;;;;;1.32;100.00;102408.47;5020445;28;20060;-73
2023/03/03 07:40:41;;;;;;;36.97;16.15;;;;;;;1.34;100.00;102412.84;5003277;28;20064;-76
2023/03/03 07:43:33;;;;;;;32.95;16.38;;;;;;;1.38;100.00;102419.00;5019462;28;20113;-75
2023/03/03 07:46:10;;;;;;;35.15;16.25;;;;;;;1.39;100.00;102410.16;5019764;28;20048;-74
2023/03/03 07:48:40;;;;;;;28.95;15.20;;;;;;;1.39;100.00;102418.09;5020186;28;20036;-73
2023/03/03 07:51:26;;;;;;;32.97;16.73;;;;;;;1.39;100.00;102419.00;5002853;28;20139;-76
2023/03/03 07:54:08;;;;;;;34.50;16.13;;;;;;;1.41;100.00;102418.97;5019141;28;20122;-75
2023/03/03 07:56:34;;;;;;;33.92;16.38;;;;;;;1.43;100.00;102422.47;5020850;28;20029;-74
2023/03/03 07:59:08;;;;;;;31.65;15.65;;;;;;;1.43;100.00;102421.59;5020448;28;20396;-75
2023/03/03 08:01:38;;;;;;;32.45;17.17;;;;;;;1.43;100.00;102418.97;5001770;28;20025;-75
2023/03/03 08:04:12;;;;;;;34.17;16.63;;;;;;;1.44;99.72;102428.66;5001230;28;21378;-75
2023/03/03 08:06:47;;;;;;;30.90;15.15;;;;;;;1.44;99.46;102428.66;5017645;28;20040;-75
2023/03/03 08:09:26;;;;;;;33.33;15.23;;;;;;;1.44;99.16;102426.88;5020227;28;20108;-73
2023/03/03 08:12:09;;;;;;;35.28;16.27;;;;;;;1.44;99.46;102437.47;5002594;28;20092;-74
2023/03/03 08:14:37;;;;;;;31.00;13.45;;;;;;;1.44;99.31;102436.63;5002180;28;20041;-73
2023/03/03 08:17:14;;;;;;;30.60;14.13;;;;;;;1.45;98.60;102444.56;5017585;28;20036;-75
2023/03/03 08:19:40;;;;;;;32.42;14.25;;;;;;;1.46;98.16;102443.63;5020310;28;20154;-74
2023/03/03 08:22:14;;;;;;;33.78;12.80;;;;;;;1.49;98.69;102450.69;5015585;28;20029;-75
2023/03/03 08:24:39;;;;;;;32.47;14.50;;;;;;;1.51;97.97;102446.28;5018386;28;20143;-75
2023/03/03 08:27:04;;;;;;;30.42;13.60;;;;;;;1.52;97.42;102461.25;5000661;28;20104;-74
2023/03/03 08:29:30;;;;;;;31.50;14.77;;;;;;;1.52;97.16;102455.94;5001289;28;20040;-75
2023/03/03 08:31:55;;;;;;;29.92;13.27;;;;;;;1.54;97.82;102456.84;5018404;28;21101;-76
2023/03/03 08:34:20;;;;;;;30.90;13.68;;;;;;;1.56;97.55;102457.69;5000876;28;20030;-74
2023/03/03 08:36:46;;;;;;;30.13;13.43;;;;;;;1.59;96.66;102460.31;5016605;28;20075;-74
2023/03/03 08:39:12;;;;;;;34.20;14.63;;;;;;;1.65;96.96;102459.38;5015782;28;20111;-75
2023/03/03 08:41:39;;;;;;;35.10;15.95;;;;;;;1.69;96.77;102454.00;4998566;28;21139;-75
2023/03/03 08:44:05;;;;;;;30.52;13.57;;;;;;;1.73;96.53;102458.38;5016018;28;20040;-75
2023/03/03 08:46:31;;;;;;;31.25;14.98;;;;;;;1.78;96.98;102455.69;5001097;28;20108;-73
2023/03/03 08:48:56;;;;;;;36.17;17.38;;;;;;;1.81;96.98;102462.75;5001790;28;20044;-77
2023/03/03 08:51:21;;;;;;;38.17;17.60;;;;;;;1.84;97.51;102463.56;5019016;28;20071;-75
2023/03/03 08:53:47;;;;;;;29.65;14.90;;;;;;;1.86;97.94;102479.47;5018798;28;20437;-74
2023/03/03 08:56:12;;;;;;;30.30;14.85;;;;;;;1.85;97.92;102481.25;5017074;28;20029;-75
2023/03/03 08:58:38;;;;;;;33.63;15.77;;;;;;;1.87;97.66;102478.56;5018135;28;20037;-75
2023/03/03 09:01:04;;;;;;;34.45;16.60;;;;;;;1.89;97.91;102484.75;5016885;28;20033;-73
2023/03/03 09:03:30;;;;;;;32.28;16.45;;;;;;;1.87;97.14;102487.41;5017901;28;20029;-75
2023/03/03 09:05:55;;;;;;;31.55;14.95;;;;;;;1.88;97.72;102483.84;5018129;28;20109;-75
2023/03/03 09:08:20;;;;;;;31.27;15.10;;;;;;;1.90;98.15;102486.50;5018560;28;20045;-75
2023/03/03 09:10:46;;;;;;;30.92;12.90;;;;;;;1.90;97.58;102486.50;5018268;28;20496;-74
2023/03/03 09:13:14;;;;;;;30.55;14.63;;;;;;;1.92;97.95;102482.06;5018621;28;20025;-76
2023/03/03 09:15:40;;;;;;;31.15;15.27;;;;;;;1.94;97.23;102490.00;5000280;28;20030;-75
2023/03/03 09:18:17;;;;;;;34.38;14.93;;;;;;;1.96;97.08;102486.41;5018614;28;20033;-74
2023/03/03 09:20:44;;;;;;;31.50;13.48;;;;;;;1.96;96.66;102486.41;4999955;28;20037;-74
2023/03/03 09:23:34;;;;;;;30.42;14.23;;;;;;;2.03;96.83;102492.53;5000172;28;20041;-75
2023/03/03 09:26:21;;;;;;;;;;;;;;;2.09;96.76;102484.50;5018166;28;20997;-73
2023/03/03 09:28:46;;;;;;;31.13;12.55;;;;;;;2.10;95.36;102486.28;5012593;28;19921;-75
2023/03/03 09:31:25;;;;;;;31.70;12.20;;;;;;;2.11;95.82;102485.38;4999841;28;20111;-73
2023/03/03 09:33:53;;;;;;;32.20;13.05;;;;;;;2.14;95.17;102488.00;5015203;28;20043;-76
2023/03/03 09:36:26;;;;;;;25.42;11.32;;;;;;;2.19;94.61;102498.56;5017534;28;20025;-74
2023/03/03 09:38:54;;;;;;;30.05;12.77;;;;;;;2.21;94.03;102495.00;5017929;28;20037;-78
2023/03/03 09:41:45;;;;;;;28.92;13.05;;;;;;;2.26;94.40;102492.28;5017977;28;20049;-74
2023/03/03 09:44:35;;;;;;;30.63;14.00;;;;;;;2.29;95.43;102492.25;5000484;28;20129;-76
2023/03/03 09:47:09;;;;;;;;;;;;;;;2.36;95.57;102496.56;5018352;28;20029;-75
2023/03/03 09:49:46;;;;;;;24.50;10.30;;;;;;;2.39;95.14;102498.31;4999950;28;20047;-76
2023/03/03 09:52:19;;;;;;;24.90;11.65;;;;;;;2.39;92.68;102491.22;5016554;28;20025;-74
2023/03/03 09:54:57;;;;;;;26.83;12.07;;;;;;;2.47;93.57;102492.91;5015572;28;20103;-77
2023/03/03 09:57:35;;;;;;;25.70;10.55;;;;;;;2.50;93.03;102503.47;5015789;28;20029;-77
2023/03/03 10:00:27;;;;;;;25.38;10.40;;;;;;;2.51;91.92;102499.94;5014526;28;20036;-74
2023/03/03 10:03:12;;;;;;;28.05;11.45;;;;;;;2.53;92.13;102508.75;5011855;28;20539;-76
2023/03/03 10:05:47;;;;;;;28.83;10.40;;;;;;;2.56;92.75;102503.41;4994407;28;20115;-77
2023/03/03 10:08:35;;;;;;;24.30;9.77;;;;;;;2.58;91.59;102509.59;4998121;28;20046;-77
2023/03/03 10:11:12;;;;;;;24.75;10.07;;;;;;;2.60;90.62;102510.44;5019132;28;20033;-76
2023/03/03 10:14:02;;;;;;;26.45;11.32;;;;;;;2.62;91.05;102519.22;5019242;28;20041;-76
2023/03/03 10:17:03;;;;;;;25.25;10.50;;;;;;;2.69;91.74;102510.28;5019732;28;20080;-73
2023/03/03 10:19:40;;;;;;;26.77;10.38;;;;;;;2.75;91.91;102510.22;5021866;28;20029;-75
2023/03/03 10:22:31;;;;;;;26.40;10.20;;;;;;;2.79;92.43;102511.91;5020546;28;20401;-77
2023/03/03 10:25:20;;;;;;;24.48;10.38;;;;;;;2.82;90.89;102512.78;5018006;28;20123;-77
2023/03/03 10:27:57;;;;;;;25.80;10.82;;;;;;;2.84;91.65;102513.63;5000284;28;20558;-76
2023/03/03 10:30:31;;;;;;;25.85;9.88;;;;;;;2.88;91.26;102510.03;5015192;28;20083;-76
2023/03/03 10:33:04;;;;;;;26.13;10.45;;;;;;;2.91;91.41;102517.97;5002984;28;20052;-75
2023/03/03 10:35:40;;;;;;;23.75;9.48;;;;;;;2.94;90.75;102510.84;5001195;28;20127;-74
2023/03/03 10:38:14;;;;;;;26.05;11.07;;;;;;;2.98;91.27;102512.53;5015938;28;20037;-73
2023/03/03 10:40:39;;;;;;;26.80;10.18;;;;;;;3.03;91.28;102508.94;5011915;28;20156;-73
2023/03/03 10:43:15;;;;;;;24.88;9.98;;;;;;;3.07;91.01;102513.31;5018845;28;20411;-75
2023/03/03 10:45:44;;;;;;;23.15;8.80;;;;;;;3.10;90.83;102511.47;5002335;28;20110;-75
2023/03/03 10:48:37;;;;;;;24.65;9.50;;;;;;;3.17;90.21;102511.41;5018972;28;20041;-75
2023/03/03 10:51:14;;;;;;;24.40;9.15;;;;;;;3.21;90.38;102506.00;5014917;28;20064;-73
2023/03/03 10:53:55;;;;;;;26.20;11.25;;;;;;;3.29;90.80;102503.22;5017824;28;20588;-72
2023/03/03 10:56:56;;;;;;;23.45;8.93;;;;;;;3.35;90.32;102508.44;5013963;28;20041;-74
2023/03/03 10:59:37;;;;;;;25.98;10.38;;;;;;;3.37;89.81;102514.63;5017458;28;20037;-74
2023/03/03 11:02:10;;;;;;;26.35;11.48;;;;;;;3.42;90.06;102510.09;5016770;28;20033;-76
2023/03/03 11:04:57;;;;;;;26.70;11.38;;;;;;;3.46;90.00;102506.47;5005154;28;20037;-76
2023/03/03 11:08:04;;;;;;;25.90;10.38;;;;;;;3.54;89.97;102505.47;5004693;28;20045;-77
2023/03/03 11:10:47;;;;;;;26.55;11.82;;;;;;;3.60;89.12;102508.03;4995863;28;20057;-76
2023/03/03 11:13:50;;;;;;;29.13;11.35;;;;;;;3.68;88.61;102509.63;5020388;28;20108;-75
2023/03/03 11:16:39;;;;;;;23.70;10.70;;;;;;;3.75;89.21;102507.75;5018821;28;20098;-75
2023/03/03 11:19:37;;;;;;;24.52;11.38;;;;;;;3.81;89.29;102499.66;5020913;28;20035;-76
2023/03/03 11:22:23;;;;;;;26.45;11.18;;;;;;;3.82;88.53;102506.75;4989833;28;20041;-73
2023/03/03 11:25:01;;;;;;;27.98;11.88;;;;;;;3.80;86.34;102500.56;5000209;28;20088;-74